createdAt,value
2018-02-01T00:01:48.803Z,95736.73
2018-02-01T00:04:19.737Z,95734.61
2018-02-01T00:06:48.110Z,95711.91
2018-02-01T00:09:16.410Z,95721.58
2018-02-01T00:11:44.751Z,95717.35
2018-02-01T00:14:13.128Z,95719.45
2018-02-01T00:16:41.468Z,95734.58
2018-02-01T00:19:12.421Z,95721.55
2018-02-01T00:21:41.018Z,95718.61
2018-02-01T00:24:09.395Z,95718.20
2018-02-01T00:26:37.739Z,95719.88
2018-02-01T00:29:07.919Z,95715.68
2018-02-01T00:31:38.529Z,95724.94
2018-02-01T00:34:08.485Z,95732.91
2018-02-01T00:36:36.871Z,95721.17
2018-02-01T00:39:05.172Z,95720.30
2018-02-01T00:41:33.547Z,95716.11
2018-02-01T00:44:01.867Z,95716.50
2018-02-01T00:46:32.320Z,95716.53
2018-02-01T00:49:00.670Z,95720.30
2018-02-01T00:51:28.972Z,95712.72
2018-02-01T00:53:57.324Z,95716.08
2018-02-01T00:56:26.029Z,95710.19
2018-02-01T00:58:54.495Z,95717.75
2018-02-01T01:01:23.749Z,95706.40
2018-02-01T01:03:53.121Z,95703.08
2018-02-01T01:06:22.237Z,95696.31
2018-02-01T01:08:50.680Z,95684.96
2018-02-01T01:11:18.968Z,95682.90
2018-02-01T01:13:47.418Z,95687.09
2018-02-01T01:16:15.734Z,95694.23
2018-02-01T01:18:44.074Z,95681.63
2018-02-01T01:21:14.018Z,95676.15
2018-02-01T01:23:42.537Z,95680.37
2018-02-01T01:26:12.471Z,95682.44
2018-02-01T01:28:40.867Z,95672.36
2018-02-01T01:31:09.176Z,95667.73
2018-02-01T01:33:40.527Z,95666.89
2018-02-01T01:36:11.501Z,95677.40
2018-02-01T01:38:40.078Z,95663.13
2018-02-01T01:41:08.421Z,95658.92
2018-02-01T01:43:36.793Z,95659.35
2018-02-01T01:46:11.072Z,95655.97
2018-02-01T01:48:39.361Z,95655.55
2018-02-01T01:51:07.747Z,95642.13
2018-02-01T01:53:36.922Z,95642.52
2018-02-01T01:56:05.319Z,95640.00
2018-02-01T01:58:33.604Z,95633.30
2018-02-01T02:01:03.003Z,95640.01
2018-02-01T02:03:31.407Z,95638.34
2018-02-01T02:05:59.759Z,95641.69
2018-02-01T02:08:28.207Z,95650.53
2018-02-01T02:10:56.575Z,95632.88
2018-02-01T02:13:25.653Z,95629.08
2018-02-01T02:15:53.985Z,95617.73
2018-02-01T02:18:22.294Z,95618.59
2018-02-01T02:20:50.673Z,95611.02
2018-02-01T02:23:22.827Z,95616.48
2018-02-01T02:25:53.839Z,95614.79
2018-02-01T02:28:22.934Z,95615.22
2018-02-01T02:30:51.292Z,95608.91
2018-02-01T02:33:21.282Z,95598.41
2018-02-01T02:35:49.658Z,95604.71
2018-02-01T02:38:18.000Z,95600.09
2018-02-01T02:40:46.352Z,95603.44
2018-02-01T02:43:14.715Z,95597.16
2018-02-01T02:45:46.787Z,95594.19
2018-02-01T02:48:15.131Z,95594.64
2018-02-01T02:50:44.838Z,95591.25
2018-02-01T02:53:13.464Z,95588.75
2018-02-01T02:55:41.757Z,95595.87
2018-02-01T02:58:11.017Z,95590.83
2018-02-01T03:00:39.344Z,95587.46
2018-02-01T03:03:09.326Z,95582.41
2018-02-01T03:05:38.417Z,95595.45
2018-02-01T03:08:06.803Z,95592.92
2018-02-01T03:10:36.130Z,95593.73
2018-02-01T03:13:04.406Z,95592.48
2018-02-01T03:15:32.917Z,95587.45
2018-02-01T03:18:01.263Z,95586.17
2018-02-01T03:20:29.575Z,95586.17
2018-02-01T03:22:57.934Z,95594.98
2018-02-01T03:25:27.117Z,95592.46
2018-02-01T03:27:56.496Z,95589.50
2018-02-01T03:30:25.629Z,95600.01
2018-02-01T03:32:53.940Z,95597.08
2018-02-01T03:35:22.282Z,95597.49
2018-02-01T03:37:50.649Z,95597.89
2018-02-01T03:40:19.675Z,95601.26
2018-02-01T03:42:48.030Z,95603.78
2018-02-01T03:45:18.072Z,95589.89
2018-02-01T03:47:47.366Z,95593.69
2018-02-01T03:50:17.435Z,95589.89
2018-02-01T03:52:45.820Z,95598.69
2018-02-01T03:55:16.539Z,95593.23
2018-02-01T03:57:44.883Z,95583.98
2018-02-01T04:00:15.620Z,95589.47
2018-02-01T04:02:44.367Z,95589.86
2018-02-01T04:05:14.410Z,95587.78
2018-02-01T04:07:42.774Z,95581.04
2018-02-01T04:10:11.915Z,95580.63
2018-02-01T04:12:40.294Z,95578.11
2018-02-01T04:15:08.674Z,95580.63
2018-02-01T04:17:37.004Z,95584.39
2018-02-01T04:20:05.307Z,95588.61
2018-02-01T04:22:35.297Z,95584.85
2018-02-01T04:25:03.693Z,95588.20
2018-02-01T04:27:32.015Z,95589.04
2018-02-01T04:30:03.267Z,95584.39
2018-02-01T04:32:31.547Z,95576.41
2018-02-01T04:34:59.868Z,95572.22
2018-02-01T04:37:28.195Z,95576.02
2018-02-01T04:39:58.302Z,95560.90
2018-02-01T04:42:26.690Z,95563.00
2018-02-01T04:44:55.707Z,95564.66
2018-02-01T04:47:26.636Z,95557.92
2018-02-01T04:49:54.960Z,95555.41
2018-02-01T04:52:23.350Z,95555.42
2018-02-01T04:54:51.961Z,95552.91
2018-02-01T04:57:20.383Z,95554.16
2018-02-01T04:59:48.728Z,95558.35
2018-02-01T05:02:17.242Z,95555.83
2018-02-01T05:04:46.350Z,95552.04
2018-02-01T05:07:14.773Z,95560.86
2018-02-01T05:09:44.806Z,95560.00
2018-02-01T05:12:15.279Z,95568.00
2018-02-01T05:14:45.943Z,95563.38
2018-02-01T05:17:14.237Z,95566.73
2018-02-01T05:19:42.699Z,95558.34
2018-02-01T05:22:12.759Z,95558.32
2018-02-01T05:24:41.149Z,95557.91
2018-02-01T05:27:09.455Z,95555.80
2018-02-01T05:29:39.398Z,95557.47
2018-02-01T05:32:07.762Z,95560.39
2018-02-01T05:34:36.298Z,95557.05
2018-02-01T05:37:04.693Z,95562.08
2018-02-01T05:39:33.300Z,95560.41
2018-02-01T05:42:06.984Z,95563.34
2018-02-01T05:44:35.346Z,95561.66
2018-02-01T05:47:03.718Z,95561.23
2018-02-01T05:49:32.156Z,95566.27
2018-02-01T05:52:00.618Z,95564.60
2018-02-01T05:54:29.006Z,95561.23
2018-02-01T05:56:57.355Z,95567.95
2018-02-01T05:59:25.723Z,95574.27
2018-02-01T06:01:54.054Z,95578.01
2018-02-01T06:04:22.394Z,95577.58
2018-02-01T06:06:54.302Z,95573.37
2018-02-01T06:09:22.614Z,95568.75
2018-02-01T06:11:52.930Z,95570.02
2018-02-01T06:14:24.594Z,95579.66
2018-02-01T06:16:52.968Z,95592.59
2018-02-01T06:19:21.658Z,95582.00
2018-02-01T06:21:49.932Z,95595.67
2018-02-01T06:24:18.306Z,95589.33
2018-02-01T06:26:48.239Z,95585.89
2018-02-01T06:29:17.452Z,95593.42
2018-02-01T06:31:46.762Z,95596.73
2018-02-01T06:34:16.976Z,95591.28
2018-02-01T06:36:45.347Z,95597.13
2018-02-01T06:39:13.662Z,95599.22
2018-02-01T06:41:41.972Z,95595.41
2018-02-01T06:44:10.398Z,95600.00
2018-02-01T06:46:38.726Z,95600.01
2018-02-01T06:49:09.398Z,95591.19
2018-02-01T06:51:37.812Z,95599.98
2018-02-01T06:54:06.871Z,95596.25
2018-02-01T06:56:35.258Z,95605.47
2018-02-01T06:59:05.226Z,95610.88
2018-02-01T07:01:51.422Z,95607.09
2018-02-01T07:04:21.678Z,95611.22
2018-02-01T07:06:51.908Z,95615.39
2018-02-01T07:09:20.335Z,95617.48
2018-02-01T07:11:48.753Z,95618.69
2018-02-01T07:14:17.310Z,95612.45
2018-02-01T07:16:45.690Z,95616.25
2018-02-01T07:19:15.948Z,95613.36
2018-02-01T07:21:46.946Z,95617.98
2018-02-01T07:24:15.422Z,95623.43
2018-02-01T07:26:43.902Z,95615.48
2018-02-01T07:29:12.190Z,95610.85
2018-02-01T07:31:40.700Z,95608.28
2018-02-01T07:34:09.044Z,95610.78
2018-02-01T07:36:38.543Z,95620.86
2018-02-01T07:39:06.830Z,95612.03
2018-02-01T07:41:35.216Z,95617.09
2018-02-01T07:44:03.520Z,95612.41
2018-02-01T07:46:33.440Z,95618.67
2018-02-01T07:49:02.604Z,95612.82
2018-02-01T07:51:30.931Z,95605.28
2018-02-01T07:53:59.957Z,95605.31
2018-02-01T07:56:29.092Z,95609.12
2018-02-01T07:58:57.443Z,95610.37
2018-02-01T08:01:25.784Z,95608.72
2018-02-01T08:03:57.018Z,95610.41
2018-02-01T08:06:25.478Z,95606.59
2018-02-01T08:08:55.730Z,95600.34
2018-02-01T08:11:26.766Z,95603.25
2018-02-01T08:13:55.090Z,95604.93
2018-02-01T08:16:23.550Z,95602.03
2018-02-01T08:18:51.905Z,95597.44
2018-02-01T08:21:20.236Z,95601.67
2018-02-01T08:23:50.512Z,95597.92
2018-02-01T08:26:24.130Z,95606.28
2018-02-01T08:28:53.392Z,95601.25
2018-02-01T08:31:24.872Z,95616.74
2018-02-01T08:33:53.276Z,95612.57
2018-02-01T08:36:21.834Z,95614.24
2018-02-01T08:38:52.746Z,95615.89
2018-02-01T08:41:22.970Z,95610.04
2018-02-01T08:43:52.362Z,95603.70
2018-02-01T08:46:23.888Z,95611.66
2018-02-01T08:48:53.990Z,95615.91
2018-02-01T08:51:22.298Z,95615.03
2018-02-01T08:53:53.264Z,95611.71
2018-02-01T08:56:22.656Z,95609.18
2018-02-01T08:58:51.060Z,95613.39
2018-02-01T09:01:19.406Z,95621.80
2018-02-01T09:03:49.648Z,95622.59
2018-02-01T09:06:20.270Z,95615.00
2018-02-01T09:08:49.775Z,95624.98
2018-02-01T09:11:18.254Z,95624.48
2018-02-01T09:13:52.541Z,95624.05
2018-02-01T09:16:20.953Z,95621.86
2018-02-01T09:18:49.336Z,95629.01
2018-02-01T09:21:17.803Z,95624.00
2018-02-01T09:23:47.267Z,95637.80
2018-02-01T09:26:15.622Z,95643.61
2018-02-01T09:28:44.202Z,95649.05
2018-02-01T09:31:12.579Z,95655.66
2018-02-01T09:33:42.556Z,95655.66
2018-02-01T09:36:10.991Z,95664.80
2018-02-01T09:38:40.087Z,95668.17
2018-02-01T09:41:12.294Z,95678.97
2018-02-01T09:43:40.633Z,95679.72
2018-02-01T09:46:11.045Z,95680.06
2018-02-01T09:48:41.792Z,95685.00
2018-02-01T09:51:11.760Z,95681.28
2018-02-01T09:53:44.024Z,95685.99
2018-02-01T09:56:12.470Z,95687.30
2018-02-01T09:58:40.928Z,95693.59
2018-02-01T10:01:10.918Z,95692.30
2018-02-01T10:03:39.423Z,95699.68
2018-02-01T10:06:07.798Z,95701.39
2018-02-01T10:08:37.844Z,95704.71
2018-02-01T10:11:06.222Z,95705.09
2018-02-01T10:13:34.633Z,95710.87
2018-02-01T10:16:03.901Z,95715.42
2018-02-01T10:18:33.200Z,95714.20
2018-02-01T10:21:05.771Z,95728.81
2018-02-01T10:23:34.121Z,95729.70
2018-02-01T10:26:02.604Z,95734.34
2018-02-01T10:28:30.953Z,95746.52
2018-02-01T10:30:59.372Z,95730.63
2018-02-01T10:33:27.770Z,95732.28
2018-02-01T10:35:56.092Z,95732.66
2018-02-01T10:38:25.251Z,95736.03
2018-02-01T10:40:55.543Z,95737.62
2018-02-01T10:43:27.336Z,95740.94
2018-02-01T10:45:55.856Z,95744.65
2018-02-01T10:48:24.972Z,95740.74
2018-02-01T10:50:54.279Z,95749.95
2018-02-01T10:53:23.555Z,95740.79
2018-02-01T10:55:53.748Z,95749.22
2018-02-01T10:58:22.179Z,95754.30
2018-02-01T11:00:54.796Z,95752.16
2018-02-01T11:03:23.203Z,95750.90
2018-02-01T11:05:53.187Z,95755.87
2018-02-01T11:08:22.327Z,95759.86
2018-02-01T11:10:50.657Z,95752.08
2018-02-01T11:13:20.677Z,95748.34
2018-02-01T11:15:52.069Z,95750.40
2018-02-01T11:18:20.441Z,95751.64
2018-02-01T11:20:50.453Z,95747.00
2018-02-01T11:23:18.801Z,95740.34
2018-02-01T11:25:48.809Z,95737.89
2018-02-01T11:28:17.181Z,95728.23
2018-02-01T11:30:45.531Z,95735.67
2018-02-01T11:33:13.848Z,95731.97
2018-02-01T11:35:42.245Z,95735.28
2018-02-01T11:38:10.633Z,95736.47
2018-02-01T11:40:39.906Z,95743.22
2018-02-01T11:43:10.132Z,95746.19
2018-02-01T11:45:41.681Z,95747.08
2018-02-01T11:48:10.060Z,95745.23
2018-02-01T11:50:38.363Z,95745.27
2018-02-01T11:53:08.543Z,95747.05
2018-02-01T11:55:37.074Z,95752.12
2018-02-01T11:58:05.419Z,95750.84
2018-02-01T12:00:33.929Z,95751.33
2018-02-01T12:03:04.135Z,95747.96
2018-02-01T12:05:32.442Z,95754.14
2018-02-01T12:08:01.646Z,95753.69
2018-02-01T12:10:29.943Z,95749.08
2018-02-01T12:12:58.987Z,95740.64
2018-02-01T12:15:30.308Z,95750.33
2018-02-01T12:17:58.787Z,95744.97
2018-02-01T12:20:27.123Z,95747.20
2018-02-01T12:22:55.507Z,95753.18
2018-02-01T12:25:26.619Z,95746.95
2018-02-01T12:27:57.333Z,95744.40
2018-02-01T12:30:27.841Z,95742.31
2018-02-01T12:32:58.901Z,95737.72
2018-02-01T12:35:27.333Z,95745.27
2018-02-01T12:37:57.502Z,95751.11
2018-02-01T12:40:27.768Z,95749.00
2018-02-01T12:42:58.799Z,95743.91
2018-02-01T12:45:29.802Z,95736.31
2018-02-01T12:47:58.199Z,95727.03
2018-02-01T12:50:26.612Z,95734.67
2018-02-01T12:52:58.280Z,95726.36
2018-02-01T12:55:27.396Z,95726.68
2018-02-01T12:57:55.698Z,95738.34
2018-02-01T13:00:24.982Z,95730.80
2018-02-01T13:02:53.366Z,95735.86
2018-02-01T13:05:22.450Z,95731.72
2018-02-01T13:07:50.848Z,95726.76
2018-02-01T13:10:21.010Z,95722.61
2018-02-01T13:12:49.502Z,95725.92
2018-02-01T13:15:17.892Z,95734.30
2018-02-01T13:17:46.398Z,95733.14
2018-02-01T13:20:15.546Z,95740.67
2018-02-01T13:22:43.906Z,95738.14
2018-02-01T13:25:13.088Z,95740.21
2018-02-01T13:27:43.290Z,95735.53
2018-02-01T13:30:12.442Z,95739.75
2018-02-01T13:32:44.555Z,95738.14
2018-02-01T13:35:14.664Z,95733.55
2018-02-01T13:37:43.114Z,95745.67
2018-02-01T13:40:11.550Z,95750.27
2018-02-01T13:42:40.154Z,95743.58
2018-02-01T13:45:08.544Z,95746.07
2018-02-01T13:47:39.227Z,95749.41
2018-02-01T13:50:07.618Z,95754.50
2018-02-01T13:52:35.943Z,95753.63
2018-02-01T13:55:04.317Z,95761.50
2018-02-01T13:57:32.809Z,95758.08
2018-02-01T14:00:01.135Z,95761.87
2018-02-01T14:02:29.479Z,95765.98
2018-02-01T14:04:57.876Z,95772.20
2018-02-01T14:07:33.076Z,95771.72
2018-02-01T14:10:03.248Z,95757.95
2018-02-01T14:12:33.216Z,95755.45
2018-02-01T14:15:04.166Z,95754.29
2018-02-01T14:17:32.617Z,95763.87
2018-02-01T14:20:03.356Z,95761.75
2018-02-01T14:22:34.052Z,95778.08
2018-02-01T14:25:03.458Z,95775.52
2018-02-01T14:27:32.852Z,95766.25
2018-02-01T14:30:01.216Z,95773.73
2018-02-01T14:32:31.330Z,95766.25
2018-02-01T14:35:00.284Z,95759.23
2018-02-01T14:37:29.574Z,95768.03
2018-02-01T14:39:57.964Z,95771.72
2018-02-01T14:42:30.179Z,95778.03
2018-02-01T14:45:00.317Z,95773.84
2018-02-01T14:47:28.770Z,95780.47
2018-02-01T14:49:57.225Z,95781.59
2018-02-01T14:52:26.406Z,95786.05
2018-02-01T14:54:54.784Z,95793.13
2018-02-01T14:57:24.954Z,95795.48
2018-02-01T14:59:54.348Z,95796.72
2018-02-01T15:02:26.372Z,95800.06
2018-02-01T15:04:54.714Z,95797.04
2018-02-01T15:07:23.215Z,95796.84
2018-02-01T15:09:51.678Z,95795.09
2018-02-01T15:12:21.839Z,95800.41
2018-02-01T15:14:50.444Z,95807.70
2018-02-01T15:17:21.366Z,95813.14
2018-02-01T15:19:49.941Z,95805.97
2018-02-01T15:22:18.346Z,95809.75
2018-02-01T15:24:48.127Z,95807.34
2018-02-01T15:27:18.378Z,95813.45
2018-02-01T15:29:49.254Z,95808.53
2018-02-01T15:32:17.589Z,95813.14
2018-02-01T15:34:46.145Z,95812.19
2018-02-01T15:37:14.628Z,95817.18
2018-02-01T15:39:44.009Z,95821.75
2018-02-01T15:42:13.531Z,95826.30
2018-02-01T15:44:41.916Z,95820.49
2018-02-01T15:47:12.131Z,95810.94
2018-02-01T15:49:42.197Z,95820.52
2018-02-01T15:52:10.940Z,95818.47
2018-02-01T15:54:41.001Z,95820.16
2018-02-01T15:57:11.379Z,95829.81
2018-02-01T15:59:42.339Z,95830.64
2018-02-01T16:02:14.343Z,95826.43
2018-02-01T16:04:43.490Z,95813.49
2018-02-01T16:07:14.300Z,95814.25
2018-02-01T16:09:42.613Z,95821.64
2018-02-01T16:12:14.203Z,95824.87
2018-02-01T16:14:43.302Z,95834.48
2018-02-01T16:17:11.827Z,95835.20
2018-02-01T16:19:41.906Z,95842.27
2018-02-01T16:22:10.447Z,95840.64
2018-02-01T16:24:39.791Z,95839.71
2018-02-01T16:27:11.133Z,95846.45
2018-02-01T16:29:40.217Z,95846.95
2018-02-01T16:32:11.214Z,95850.64
2018-02-01T16:34:40.713Z,95853.97
2018-02-01T16:37:12.506Z,95853.60
2018-02-01T16:39:42.953Z,95858.98
2018-02-01T16:42:11.328Z,95850.24
2018-02-01T16:44:39.681Z,95846.45
2018-02-01T16:47:08.099Z,95852.69
2018-02-01T16:49:36.793Z,95857.36
2018-02-01T16:52:05.995Z,95850.72
2018-02-01T16:54:34.621Z,95861.59
2018-02-01T16:57:02.989Z,95859.11
2018-02-01T16:59:33.164Z,95854.08
2018-02-01T17:02:01.682Z,95855.41
2018-02-01T17:04:30.197Z,95851.20
2018-02-01T17:06:58.688Z,95856.61
2018-02-01T17:09:27.007Z,95850.77
2018-02-01T17:11:55.513Z,95856.23
2018-02-01T17:14:23.869Z,95860.00
2018-02-01T17:16:52.191Z,95859.56
2018-02-01T17:19:25.487Z,95859.95
2018-02-01T17:21:57.268Z,95861.66
2018-02-01T17:24:28.306Z,95862.42
2018-02-01T17:26:56.718Z,95867.76
2018-02-01T17:29:28.063Z,95870.58
2018-02-01T17:31:59.431Z,95884.25
2018-02-01T17:34:28.388Z,95885.52
2018-02-01T17:36:58.552Z,95885.11
2018-02-01T17:39:29.621Z,95888.41
2018-02-01T17:41:58.038Z,95890.13
2018-02-01T17:44:26.561Z,95881.33
2018-02-01T17:46:57.566Z,95880.95
2018-02-01T17:49:28.601Z,95893.34
2018-02-01T17:51:57.224Z,95899.60
2018-02-01T17:54:26.384Z,95903.02
2018-02-01T17:56:54.754Z,95899.63
2018-02-01T17:59:23.193Z,95897.95
2018-02-01T18:01:51.775Z,95902.94
2018-02-01T18:04:20.152Z,95903.79
2018-02-01T18:06:49.448Z,95912.98
2018-02-01T18:09:17.789Z,95910.40
2018-02-01T18:11:46.299Z,95909.55
2018-02-01T18:14:15.494Z,95907.86
2018-02-01T18:16:44.895Z,95920.39
2018-02-01T18:19:15.023Z,95912.42
2018-02-01T18:21:43.439Z,95914.02
2018-02-01T18:24:13.526Z,95931.86
2018-02-01T18:26:42.050Z,95929.30
2018-02-01T18:29:10.467Z,95930.03
2018-02-01T18:31:39.069Z,95935.77
2018-02-01T18:34:09.279Z,95951.08
2018-02-01T18:36:42.616Z,95962.65
2018-02-01T18:39:11.307Z,95965.17
2018-02-01T18:41:39.683Z,95964.61
2018-02-01T18:44:08.094Z,95961.45
2018-02-01T18:46:37.472Z,95959.61
2018-02-01T18:49:05.914Z,95948.28
2018-02-01T18:51:36.918Z,95950.78
2018-02-01T18:54:06.580Z,95936.47
2018-02-01T18:56:38.183Z,95927.84
2018-02-01T18:59:06.807Z,95940.81
2018-02-01T19:01:35.523Z,95953.32
2018-02-01T19:04:03.959Z,95949.01
2018-02-01T19:06:32.712Z,95931.49
2018-02-01T19:09:03.881Z,95940.25
2018-02-01T19:11:34.880Z,95937.81
2018-02-01T19:14:03.454Z,95936.23
2018-02-01T19:16:32.113Z,95942.92
2018-02-01T19:19:01.351Z,95935.34
2018-02-01T19:21:31.767Z,95934.12
2018-02-01T19:24:02.625Z,95931.33
2018-02-01T19:26:33.662Z,95935.11
2018-02-01T19:29:02.260Z,95937.62
2018-02-01T19:31:30.720Z,95936.50
2018-02-01T19:33:59.304Z,95947.03
2018-02-01T19:36:30.075Z,95951.67
2018-02-01T19:38:59.660Z,95954.58
2018-02-01T19:41:28.171Z,95960.89
2018-02-01T19:43:58.459Z,95966.69
2018-02-01T19:46:29.468Z,95971.66
2018-02-01T19:49:00.205Z,95956.58
2018-02-01T19:51:31.221Z,95946.50
2018-02-01T19:53:59.863Z,95957.80
2018-02-01T19:56:28.271Z,95950.69
2018-02-01T19:58:57.531Z,95948.55
2018-02-01T20:01:26.067Z,95952.27
2018-02-01T20:03:55.631Z,95950.12
2018-02-01T20:06:25.608Z,95937.16
2018-02-01T20:08:56.018Z,95927.21
2018-02-01T20:11:27.188Z,95927.61
2018-02-01T20:13:56.075Z,95934.00
2018-02-01T20:16:24.668Z,95934.39
2018-02-01T20:18:53.326Z,95931.00
2018-02-01T20:21:22.955Z,95941.86
2018-02-01T20:23:51.958Z,95945.95
2018-02-01T20:26:21.457Z,95960.03
2018-02-01T20:28:50.257Z,95966.72
2018-02-01T20:31:21.922Z,95977.58
2018-02-01T20:33:50.405Z,95965.50
2018-02-01T20:36:20.005Z,95961.35
2018-02-01T20:38:49.503Z,95965.03
2018-02-01T20:41:17.987Z,95975.80
2018-02-01T20:43:48.504Z,95956.58
2018-02-01T20:46:17.211Z,95953.61
2018-02-01T20:48:50.081Z,95956.90
2018-02-01T20:51:18.670Z,95953.64
2018-02-01T20:53:47.301Z,95952.45
2018-02-01T20:56:18.587Z,95945.45
2018-02-01T20:58:49.572Z,95945.91
2018-02-01T21:01:18.030Z,95936.83
2018-02-01T21:03:47.630Z,95946.05
2018-02-01T21:06:18.629Z,95948.97
2018-02-01T21:08:47.079Z,95949.01
2018-02-01T21:11:16.471Z,95943.51
2018-02-01T21:13:44.780Z,95944.33
2018-02-01T21:16:13.184Z,95942.22
2018-02-01T21:18:41.702Z,95950.12
2018-02-01T21:21:10.069Z,95948.48
2018-02-01T21:23:38.420Z,95944.66
2018-02-01T21:26:07.588Z,95942.12
2018-02-01T21:28:37.812Z,95937.45
2018-02-01T21:31:09.179Z,95931.20
2018-02-01T21:33:37.638Z,95923.72
2018-02-01T21:36:07.095Z,95925.73
2018-02-01T21:38:36.362Z,95927.84
2018-02-01T21:41:06.095Z,95939.88
2018-02-01T21:43:37.159Z,95939.52
2018-02-01T21:46:07.147Z,95938.27
2018-02-01T21:48:35.520Z,95944.98
2018-02-01T21:51:04.814Z,95944.59
2018-02-01T21:53:36.783Z,95949.53
2018-02-01T21:56:05.188Z,95947.45
2018-02-01T21:58:36.070Z,95952.39
2018-02-01T22:01:04.404Z,95956.18
2018-02-01T22:03:34.505Z,95950.78
2018-02-01T22:06:04.111Z,95946.63
2018-02-01T22:08:32.537Z,95957.10
2018-02-01T22:11:03.934Z,95952.92
2018-02-01T22:13:33.359Z,95954.99
2018-02-01T22:16:03.980Z,95942.02
2018-02-01T22:18:33.399Z,95942.39
2018-02-01T22:21:01.954Z,95938.63
2018-02-01T22:23:31.172Z,95941.17
2018-02-01T22:25:59.612Z,95948.70
2018-02-01T22:28:28.041Z,95944.59
2018-02-01T22:30:56.416Z,95949.27
2018-02-01T22:33:24.771Z,95950.09
2018-02-01T22:35:55.528Z,95958.84
2018-02-01T22:38:23.855Z,95988.88
2018-02-01T22:40:53.476Z,95969.68
2018-02-01T22:43:22.799Z,95980.48
2018-02-01T22:45:53.097Z,95986.34
2018-02-01T22:48:24.708Z,95985.09
2018-02-01T22:50:54.751Z,95980.94
2018-02-01T22:53:23.169Z,95979.30
2018-02-01T22:55:51.553Z,95982.13
2018-02-01T22:58:20.973Z,95995.09
2018-02-01T23:00:49.453Z,95979.62
2018-02-01T23:03:20.398Z,95971.78
2018-02-01T23:05:48.785Z,95969.28
2018-02-01T23:08:17.190Z,95957.59
2018-02-01T23:10:46.305Z,95970.93
2018-02-01T23:13:14.675Z,95976.72
2018-02-01T23:15:43.074Z,95962.17
2018-02-01T23:18:13.356Z,95965.56
2018-02-01T23:20:42.708Z,95963.49
2018-02-01T23:23:11.991Z,95963.49
2018-02-01T23:25:40.397Z,95958.06
2018-02-01T23:28:10.587Z,95953.91
2018-02-01T23:30:39.768Z,95953.52
2018-02-01T23:33:09.116Z,95951.84
2018-02-01T23:35:37.514Z,95945.98
2018-02-01T23:38:06.627Z,95943.08
2018-02-01T23:40:34.991Z,95942.29
2018-02-01T23:43:05.089Z,95945.69
2018-02-01T23:45:33.617Z,95949.89
2018-02-01T23:48:01.961Z,95956.12
2018-02-01T23:50:31.498Z,95948.65
2018-02-01T23:53:00.253Z,95947.36
2018-02-01T23:55:28.561Z,95943.11
2018-02-01T23:57:56.895Z,95942.62
